createdAt,value
2022-11-17T00:02:41.619Z,8.82
2022-11-17T00:06:44.260Z,18.35
2022-11-17T00:10:45.859Z,7.28
2022-11-17T00:14:47.796Z,6.80
2022-11-17T00:19:07.975Z,5.75
2022-11-17T00:23:09.888Z,5.57
2022-11-17T00:27:12.025Z,11.25
2022-11-17T00:31:33.206Z,6.03
2022-11-17T00:35:34.795Z,7.88
2022-11-17T00:39:36.798Z,4.80
2022-11-17T00:43:38.425Z,6.47
2022-11-17T00:47:40.390Z,4.45
2022-11-17T00:51:42.547Z,5.05
2022-11-17T00:55:44.799Z,5.57
2022-11-17T00:59:46.415Z,5.25
2022-11-17T01:03:48.807Z,6.65
2022-11-17T01:07:52.971Z,5.45
2022-11-17T01:11:54.906Z,6.20
2022-11-17T01:15:56.577Z,4.80
2022-11-17T01:19:58.659Z,5.38
2022-11-17T01:24:02.000Z,6.18
2022-11-17T01:28:04.090Z,4.90
2022-11-17T01:32:05.728Z,6.10
2022-11-17T01:36:12.623Z,7.50
2022-11-17T01:40:14.610Z,5.45
2022-11-17T01:44:41.654Z,4.47
2022-11-17T01:48:44.756Z,5.47
2022-11-17T01:52:49.205Z,6.38
2022-11-17T01:56:55.686Z,6.90
2022-11-17T02:00:58.056Z,7.35
2022-11-17T02:05:05.812Z,6.10
2022-11-17T02:09:08.596Z,6.97
2022-11-17T02:13:10.321Z,8.95
2022-11-17T02:17:14.516Z,7.38
2022-11-17T02:21:41.311Z,5.10
2022-11-17T02:25:53.240Z,6.80
2022-11-17T02:30:07.399Z,6.50
2022-11-17T02:34:12.329Z,5.78
2022-11-17T02:38:31.786Z,7.18
2022-11-17T02:42:58.858Z,7.53
2022-11-17T02:47:20.945Z,6.18
2022-11-17T02:51:24.642Z,5.13
2022-11-17T02:55:27.658Z,7.28
2022-11-17T02:59:36.936Z,5.47
2022-11-17T03:04:04.117Z,6.10
2022-11-17T03:08:20.336Z,6.53
2022-11-17T03:12:24.433Z,10.85
2022-11-17T03:16:41.542Z,7.75
2022-11-17T03:21:10.392Z,6.90
2022-11-17T03:25:17.873Z,7.88
2022-11-17T03:29:23.910Z,6.72
2022-11-17T03:33:28.986Z,6.13
2022-11-17T03:37:33.693Z,8.25
2022-11-17T03:41:41.685Z,6.00
2022-11-17T03:45:51.499Z,7.50
2022-11-17T03:50:03.758Z,6.15
2022-11-17T03:54:06.226Z,9.35
2022-11-17T03:58:15.319Z,5.70
2022-11-17T04:02:19.278Z,6.07
2022-11-17T04:06:21.236Z,6.70
2022-11-17T04:10:25.727Z,5.28
2022-11-17T04:14:46.513Z,5.35
2022-11-17T04:18:48.663Z,9.35
2022-11-17T04:23:07.112Z,6.60
2022-11-17T04:27:27.834Z,6.83
2022-11-17T04:31:31.839Z,7.32
2022-11-17T04:35:33.462Z,7.80
2022-11-17T04:39:38.662Z,6.43
2022-11-17T04:43:40.334Z,6.93
2022-11-17T04:47:42.204Z,8.38
2022-11-17T04:51:44.337Z,5.47
2022-11-17T04:55:46.282Z,6.97
2022-11-17T04:59:47.927Z,7.93
2022-11-17T05:03:53.824Z,5.65
2022-11-17T05:07:55.662Z,5.22
2022-11-17T05:12:16.068Z,4.53
2022-11-17T05:16:37.588Z,5.50
2022-11-17T05:20:39.516Z,5.60
2022-11-17T05:24:41.140Z,5.78
2022-11-17T05:28:43.554Z,6.32
2022-11-17T05:32:45.276Z,6.20
2022-11-17T05:36:47.204Z,7.53
2022-11-17T05:40:48.866Z,3.63
2022-11-17T05:44:51.058Z,7.20
2022-11-17T05:48:53.398Z,7.07
2022-11-17T05:52:55.300Z,6.05
2022-11-17T05:57:03.085Z,8.75
2022-11-17T06:01:06.675Z,5.05
2022-11-17T06:05:09.773Z,8.55
2022-11-17T06:09:12.574Z,9.27
2022-11-17T06:13:14.242Z,6.50
2022-11-17T06:17:25.895Z,9.65
2022-11-17T06:21:43.210Z,7.63
2022-11-17T06:25:49.900Z,6.68
2022-11-17T06:29:52.061Z,7.40
2022-11-17T06:33:54.220Z,6.05
2022-11-17T06:37:55.830Z,8.35
2022-11-17T06:41:57.748Z,5.55
2022-11-17T06:46:05.835Z,5.40
2022-11-17T06:50:08.819Z,4.60
2022-11-17T06:54:12.376Z,6.78
2022-11-17T06:58:15.034Z,6.55
2022-11-17T07:02:16.925Z,6.22
2022-11-17T07:06:19.089Z,8.30
2022-11-17T07:10:20.956Z,7.28
2022-11-17T07:14:22.914Z,7.30
2022-11-17T07:18:24.582Z,7.60
2022-11-17T07:22:26.654Z,7.97
2022-11-17T07:26:28.500Z,7.82
2022-11-17T07:30:30.634Z,13.52
2022-11-17T07:34:32.440Z,10.05
2022-11-17T07:38:35.863Z,9.32
2022-11-17T07:42:37.760Z,10.10
2022-11-17T07:46:40.882Z,15.20
2022-11-17T07:50:42.608Z,10.60
2022-11-17T07:54:44.640Z,8.55
2022-11-17T07:58:46.506Z,9.65
2022-11-17T08:02:48.426Z,7.68
2022-11-17T08:06:50.109Z,8.93
2022-11-17T08:10:52.075Z,12.18
2022-11-17T08:14:53.716Z,9.48
2022-11-17T08:18:55.586Z,10.25
2022-11-17T08:22:57.353Z,11.00
2022-11-17T08:26:59.295Z,10.43
2022-11-17T08:31:02.651Z,8.10
2022-11-17T08:35:06.913Z,9.98
2022-11-17T08:39:08.662Z,10.65
2022-11-17T08:43:10.582Z,11.82
2022-11-17T08:47:12.432Z,12.10
2022-11-17T08:51:15.042Z,17.42
2022-11-17T08:55:16.877Z,10.32
2022-11-17T08:59:18.879Z,14.73
2022-11-17T09:03:20.555Z,13.50
2022-11-17T09:07:22.669Z,11.95
2022-11-17T09:11:24.454Z,12.73
2022-11-17T09:15:26.392Z,13.20
2022-11-17T09:19:28.092Z,18.23
2022-11-17T09:23:31.678Z,14.68
2022-11-17T09:27:33.504Z,12.63
2022-11-17T09:31:36.082Z,15.82
2022-11-17T09:35:37.962Z,21.15
2022-11-17T09:39:39.870Z,13.02
2022-11-17T09:43:52.570Z,13.18
2022-11-17T09:48:40.284Z,17.83
2022-11-17T09:53:04.967Z,14.00
2022-11-17T09:57:18.660Z,17.85
2022-11-17T10:01:22.408Z,15.45
2022-11-17T10:05:34.695Z,14.18
2022-11-17T10:09:41.426Z,15.30
2022-11-17T10:13:43.195Z,17.02
2022-11-17T10:17:45.137Z,17.92
2022-11-17T10:21:51.883Z,15.55
2022-11-17T10:25:58.606Z,19.98
2022-11-17T10:30:14.783Z,17.05
2022-11-17T10:34:41.086Z,18.85
2022-11-17T10:38:45.674Z,18.63
2022-11-17T10:42:57.943Z,21.65
2022-11-17T10:47:04.018Z,18.67
2022-11-17T10:51:19.543Z,17.95
2022-11-17T10:55:34.057Z,15.07
2022-11-17T10:59:59.641Z,14.77
2022-11-17T11:04:03.270Z,19.55
2022-11-17T11:08:25.161Z,21.60
2022-11-17T11:12:53.985Z,17.90
2022-11-17T11:16:56.341Z,15.65
2022-11-17T11:21:04.748Z,15.70
2022-11-17T11:25:21.918Z,16.23
2022-11-17T11:29:39.476Z,12.48
2022-11-17T11:34:10.337Z,15.45
2022-11-17T11:38:24.359Z,15.63
2022-11-17T11:42:58.024Z,12.90
2022-11-17T11:47:11.221Z,15.32
2022-11-17T11:51:19.337Z,11.73
2022-11-17T11:59:43.382Z,13.77
2022-11-17T12:03:49.803Z,11.75
2022-11-17T12:08:17.578Z,13.07
2022-11-17T12:12:26.862Z,14.05
2022-11-17T12:16:33.428Z,11.32
2022-11-17T12:20:38.598Z,14.05
2022-11-17T12:24:41.920Z,14.05
2022-11-17T12:28:43.798Z,10.98
2022-11-17T12:32:48.426Z,14.73
2022-11-17T12:37:15.418Z,12.73
2022-11-17T12:41:48.374Z,12.52
2022-11-17T12:45:53.492Z,12.27
2022-11-17T12:50:08.989Z,9.80
2022-11-17T12:54:22.174Z,14.88
2022-11-17T12:58:48.685Z,14.82
2022-11-17T13:03:10.351Z,11.05
2022-11-17T13:07:23.649Z,9.40
2022-11-17T13:11:26.753Z,9.35
2022-11-17T13:15:28.453Z,11.13
2022-11-17T13:19:34.181Z,12.00
2022-11-17T13:23:44.272Z,12.70
2022-11-17T13:27:51.138Z,10.25
2022-11-17T13:32:28.401Z,15.80
2022-11-17T13:36:30.528Z,19.33
2022-11-17T13:40:35.470Z,11.27
2022-11-17T13:44:37.527Z,11.95
2022-11-17T13:48:44.567Z,26.85
2022-11-17T13:52:47.396Z,23.70
2022-11-17T13:56:49.151Z,19.25
2022-11-17T14:00:53.357Z,16.25
2022-11-17T14:05:14.474Z,17.73
2022-11-17T14:09:18.554Z,13.57
2022-11-17T14:13:23.854Z,15.60
2022-11-17T14:17:25.895Z,23.05
2022-11-17T14:21:28.753Z,25.35
2022-11-17T14:25:33.964Z,24.88
2022-11-17T14:29:35.625Z,22.58
2022-11-17T14:33:37.552Z,24.13
2022-11-17T14:37:39.249Z,24.15
2022-11-17T14:41:42.348Z,16.90
2022-11-17T14:45:44.750Z,23.35
2022-11-17T14:49:46.785Z,27.23
2022-11-17T14:53:48.873Z,25.60
2022-11-17T14:57:50.912Z,21.75
2022-11-17T15:01:53.990Z,24.98
2022-11-17T15:05:55.910Z,26.98
2022-11-17T15:09:57.728Z,31.98
2022-11-17T15:14:04.588Z,32.45
2022-11-17T15:18:06.562Z,46.17
2022-11-17T15:22:08.487Z,37.67
2022-11-17T15:26:16.577Z,49.28
2022-11-17T15:30:18.694Z,70.72
2022-11-17T15:34:20.825Z,57.92
2022-11-17T15:38:22.814Z,71.18
2022-11-17T15:42:24.464Z,71.82
2022-11-17T15:46:26.330Z,59.45
2022-11-17T15:50:28.371Z,51.22
2022-11-17T15:54:30.320Z,48.67
2022-11-17T15:58:32.474Z,55.67
2022-11-17T16:02:34.368Z,60.88
2022-11-17T16:06:39.529Z,63.30
2022-11-17T16:10:41.473Z,73.90
2022-11-17T16:14:43.341Z,83.65
2022-11-17T16:18:45.213Z,66.93
2022-11-17T16:22:47.971Z,82.60
2022-11-17T16:26:49.909Z,67.60
2022-11-17T16:30:51.675Z,76.03
2022-11-17T16:34:53.600Z,80.13
2022-11-17T16:39:01.792Z,78.43
2022-11-17T16:43:04.128Z,186.43
2022-11-17T16:47:05.878Z,133.50
2022-11-17T16:51:08.625Z,122.22
2022-11-17T16:55:10.273Z,98.03
2022-11-17T16:59:12.404Z,99.63
2022-11-17T17:03:16.829Z,97.57
2022-11-17T17:07:18.855Z,83.90
2022-11-17T17:11:20.772Z,240.38
2022-11-17T17:15:22.695Z,160.60
2022-11-17T17:19:24.484Z,127.50
2022-11-17T17:23:27.121Z,148.98
2022-11-17T17:27:30.381Z,107.40
2022-11-17T17:31:35.197Z,119.00
2022-11-17T17:35:36.880Z,283.25
2022-11-17T17:39:38.790Z,143.77
2022-11-17T17:43:41.959Z,166.27
2022-11-17T17:47:43.899Z,159.90
2022-11-17T17:51:45.869Z,119.30
2022-11-17T17:55:47.761Z,124.85
2022-11-17T17:59:49.457Z,87.60
2022-11-17T18:04:01.053Z,120.10
2022-11-17T18:08:04.768Z,102.90
2022-11-17T18:12:06.694Z,88.05
2022-11-17T18:16:11.347Z,91.15
2022-11-17T18:20:13.405Z,78.00
2022-11-17T18:24:15.165Z,66.40
2022-11-17T18:28:17.062Z,64.38
2022-11-17T18:32:18.693Z,64.70
2022-11-17T18:36:21.526Z,58.33
2022-11-17T18:40:23.320Z,72.45
2022-11-17T18:44:25.180Z,87.47
2022-11-17T18:48:26.961Z,77.15
2022-11-17T18:52:31.554Z,83.82
2022-11-17T18:56:35.540Z,84.65
2022-11-17T19:00:37.443Z,76.90
2022-11-17T19:04:39.181Z,66.40
2022-11-17T19:08:41.377Z,65.68
2022-11-17T19:12:42.985Z,61.38
2022-11-17T19:16:45.384Z,62.28
2022-11-17T19:20:47.164Z,78.55
2022-11-17T19:24:49.059Z,66.72
2022-11-17T19:28:55.635Z,75.10
2022-11-17T19:32:57.973Z,81.10
2022-11-17T19:36:59.630Z,68.38
2022-11-17T19:41:03.394Z,97.85
2022-11-17T19:45:05.274Z,94.65
2022-11-17T19:49:08.030Z,93.72
2022-11-17T19:53:09.849Z,83.53
2022-11-17T19:57:11.730Z,79.88
2022-11-17T20:01:15.797Z,65.47
2022-11-17T20:05:17.797Z,65.07
2022-11-17T20:09:19.661Z,74.63
2022-11-17T20:13:21.630Z,59.35
2022-11-17T20:17:23.547Z,62.30
2022-11-17T20:21:27.390Z,70.60
2022-11-17T20:25:30.630Z,67.32
2022-11-17T20:29:32.577Z,72.07
2022-11-17T20:33:34.488Z,66.05
2022-11-17T20:37:36.378Z,64.30
2022-11-17T20:41:38.286Z,67.45
2022-11-17T20:45:40.193Z,60.50
2022-11-17T20:49:41.854Z,74.57
2022-11-17T20:53:44.561Z,66.00
2022-11-17T20:57:46.245Z,70.80
2022-11-17T21:01:49.366Z,83.35
2022-11-17T21:05:59.606Z,72.90
2022-11-17T21:10:01.672Z,90.90
2022-11-17T21:14:05.535Z,92.15
2022-11-17T21:18:25.376Z,75.80
2022-11-17T21:22:27.293Z,98.78
2022-11-17T21:26:29.200Z,99.75
2022-11-17T21:30:32.498Z,100.28
2022-11-17T21:34:34.262Z,102.25
2022-11-17T21:38:36.904Z,97.85
2022-11-17T21:42:38.590Z,110.63
2022-11-17T21:46:40.698Z,96.22
2022-11-17T21:50:45.969Z,116.57
2022-11-17T21:54:48.010Z,133.27
2022-11-17T21:58:53.535Z,107.43
2022-11-17T22:02:55.574Z,135.82
2022-11-17T22:06:57.348Z,74.97
2022-11-17T22:11:03.780Z,54.50
2022-11-17T22:15:11.328Z,109.32
2022-11-17T22:19:16.111Z,93.03
2022-11-17T22:23:18.552Z,64.57
2022-11-17T22:27:22.190Z,103.90
2022-11-17T22:31:24.075Z,81.63
2022-11-17T22:35:25.964Z,70.75
2022-11-17T22:39:27.540Z,93.00
2022-11-17T22:43:29.928Z,84.57
2022-11-17T22:47:31.507Z,70.85
2022-11-17T22:51:51.988Z,94.05
2022-11-17T22:55:54.129Z,67.30
2022-11-17T22:59:56.046Z,57.05
2022-11-17T23:03:57.967Z,57.92
2022-11-17T23:08:00.893Z,40.80
2022-11-17T23:12:05.327Z,62.17
2022-11-17T23:16:07.965Z,65.05
2022-11-17T23:20:10.295Z,46.83
2022-11-17T23:24:14.509Z,38.83
2022-11-17T23:28:16.146Z,39.40
2022-11-17T23:32:18.276Z,38.17
2022-11-17T23:36:21.865Z,38.10
2022-11-17T23:40:24.294Z,46.72
2022-11-17T23:44:25.903Z,39.42
2022-11-17T23:48:27.811Z,39.47
2022-11-17T23:52:29.419Z,35.63
2022-11-17T23:56:33.594Z,37.63
